Time;durP1;ratioP1;P1;durP2;ratioP2;P2;SDS_P1;SDS_P2;PMS_P1;PMS_P2;Temp;Humidity;BMP_temperature;BMP_pressure;BME280_temperature;BME280_humidity;BME280_pressure;Samples;Min_cycle;Max_cycle;Signal;HPM_P1;HPM_P2
2021/11/22 00:00:26;;;;;;;3.83;1.73;;;;;;;4.03;100.00;102173.81;5021506;28;20497;-77
2021/11/22 00:02:56;;;;;;;5.50;1.90;;;;;;;3.98;100.00;102175.50;5028834;28;20204;-76
2021/11/22 00:05:24;;;;;;;9.00;3.00;;;;;;;4.00;100.00;102179.06;5025610;28;20045;-76
2021/11/22 00:07:52;;;;;;;8.40;2.60;;;;;;;3.94;100.00;102178.94;5025820;28;20055;-77
2021/11/22 00:10:21;;;;;;;4.18;2.08;;;;;;;3.96;100.00;102186.91;5027036;28;20363;-77
2021/11/22 00:12:50;;;;;;;7.55;2.42;;;;;;;3.95;100.00;102190.41;5016323;28;20120;-77
2021/11/22 00:15:19;;;;;;;6.20;2.50;;;;;;;3.97;100.00;102189.56;5027459;28;20148;-76
2021/11/22 00:17:47;;;;;;;10.50;2.97;;;;;;;3.95;100.00;102193.94;5025823;28;20077;-77
2021/11/22 00:20:18;;;;;;;8.45;2.75;;;;;;;3.94;100.00;102192.16;5025460;28;20160;-76
2021/11/22 00:22:46;;;;;;;7.97;2.78;;;;;;;3.95;100.00;102198.31;5027420;28;20076;-76
2021/11/22 00:25:16;;;;;;;8.57;2.42;;;;;;;3.92;100.00;102193.88;5025810;28;20491;-76
2021/11/22 00:27:48;;;;;;;4.53;1.80;;;;;;;3.91;100.00;102206.19;5027693;28;20091;-68
2021/11/22 00:30:18;;;;;;;6.20;1.95;;;;;;;3.89;100.00;102215.84;5027105;28;20053;-68
2021/11/22 00:32:48;;;;;;;5.45;2.67;;;;;;;3.83;100.00;102197.28;5025075;28;20080;-68
2021/11/22 00:35:18;;;;;;;7.97;2.30;;;;;;;3.86;100.00;102212.25;5019974;28;20126;-68
2021/11/22 00:37:51;;;;;;;14.73;3.10;;;;;;;3.98;100.00;102216.88;5025413;28;20049;-76
2021/11/22 00:40:20;;;;;;;6.07;2.83;;;;;;;3.98;100.00;102219.50;5022754;28;20157;-76
2021/11/22 00:42:50;;;;;;;12.27;3.80;;;;;;;3.98;100.00;102217.75;5027657;28;20055;-68
2021/11/22 00:45:20;;;;;;;9.18;3.72;;;;;;;3.95;100.00;102216.81;5025087;28;20480;-68
2021/11/22 00:47:50;;;;;;;9.95;3.33;;;;;;;3.88;100.00;102232.56;5024360;28;20076;-68
2021/11/22 00:50:18;;;;;;;9.82;3.55;;;;;;;3.90;100.00;102238.75;5022919;28;20059;-69
2021/11/22 00:52:46;;;;;;;9.52;3.13;;;;;;;3.87;100.00;102238.69;5021496;28;20069;-69
2021/11/22 00:55:16;;;;;;;9.30;2.92;;;;;;;3.84;100.00;102243.03;5018654;28;20130;-68
2021/11/22 00:57:44;;;;;;;11.55;3.20;;;;;;;3.85;100.00;102240.44;5025624;28;20498;-68
2021/11/22 01:00:17;;;;;;;9.30;3.70;;;;;;;3.83;100.00;102249.16;5023277;28;20053;-68
2021/11/22 01:02:47;;;;;;;8.00;3.65;;;;;;;3.89;100.00;102249.28;5023890;28;20053;-69
2021/11/22 01:05:17;;;;;;;8.13;3.25;;;;;;;3.89;100.00;102252.81;5025245;28;20140;-69
2021/11/22 01:07:48;;;;;;;8.70;3.10;;;;;;;3.84;100.00;102250.97;5021290;28;20053;-69
2021/11/22 01:10:17;;;;;;;11.13;2.80;;;;;;;3.85;100.00;102258.03;5026678;28;20140;-69
2021/11/22 01:12:46;;;;;;;7.40;2.70;;;;;;;3.84;100.00;102264.16;5021926;28;20121;-69
2021/11/22 01:15:20;;;;;;;8.10;3.30;;;;;;;3.78;100.00;102262.31;5019396;28;20052;-69
2021/11/22 01:17:51;;;;;;;8.57;3.42;;;;;;;3.76;100.00;102263.13;5024145;28;20063;-69
2021/11/22 01:20:28;;;;;;;11.45;3.75;;;;;;;3.74;100.00;102273.66;5024992;28;20192;-69
2021/11/22 01:23:00;;;;;;;8.98;3.00;;;;;;;3.71;100.00;102269.22;5019300;28;20049;-69
2021/11/22 01:25:28;;;;;;;9.82;3.40;;;;;;;3.68;100.00;102270.91;5023346;28;20490;-69
2021/11/22 01:27:56;;;;;;;11.27;3.58;;;;;;;3.64;100.00;102271.69;5021860;28;20052;-69
2021/11/22 01:30:26;;;;;;;7.80;2.75;;;;;;;3.62;100.00;102287.50;5023715;28;20095;-69
2021/11/22 01:32:55;;;;;;;9.32;3.15;;;;;;;3.65;100.00;102287.56;5018832;28;20516;-69
2021/11/22 01:35:25;;;;;;;12.15;3.78;;;;;;;3.66;100.00;102293.72;5023583;28;20471;-68
2021/11/22 01:37:53;;;;;;;13.50;4.45;;;;;;;3.62;100.00;102303.34;5021398;28;20122;-77
2021/11/22 01:40:24;;;;;;;9.55;3.92;;;;;;;3.66;100.00;102294.66;5025738;28;20049;-77
2021/11/22 01:42:53;;;;;;;8.43;3.15;;;;;;;3.65;100.00;102299.91;5026009;28;20476;-69
2021/11/22 01:45:22;;;;;;;11.15;3.67;;;;;;;3.65;100.00;102302.53;5023413;28;20052;-69
2021/11/22 01:47:52;;;;;;;9.10;3.30;;;;;;;3.63;100.00;102307.78;5023376;28;20052;-69
2021/11/22 01:50:22;;;;;;;12.23;3.97;;;;;;;3.66;100.00;102314.84;5026021;28;20049;-69
2021/11/22 01:52:53;;;;;;;11.68;3.88;;;;;;;3.68;100.00;102314.03;5019557;28;20095;-69
2021/11/22 01:55:24;;;;;;;15.02;4.65;;;;;;;3.67;100.00;102320.16;5021147;28;20498;-69
2021/11/22 01:57:54;;;;;;;13.15;4.47;;;;;;;3.66;100.00;102320.13;5022777;28;20084;-68
2021/11/22 02:00:25;;;;;;;10.40;4.18;;;;;;;3.58;100.00;102317.34;5020771;28;20052;-69
2021/11/22 02:02:56;;;;;;;7.68;3.38;;;;;;;3.51;100.00;102324.25;5025683;28;20477;-69
2021/11/22 02:05:24;;;;;;;13.65;3.72;;;;;;;3.52;100.00;102327.78;5023229;28;20091;-70
2021/11/22 02:07:53;;;;;;;7.35;3.10;;;;;;;3.52;100.00;102319.84;5025099;28;20052;-69
2021/11/22 02:10:23;;;;;;;7.65;2.50;;;;;;;3.53;100.00;102325.16;5026353;28;20084;-68
2021/11/22 02:12:51;;;;;;;5.78;2.42;;;;;;;3.55;100.00;102328.72;5019492;28;20056;-68
2021/11/22 02:15:21;;;;;;;6.75;2.28;;;;;;;3.47;100.00;102334.72;5020635;28;20495;-68
2021/11/22 02:17:51;;;;;;;6.30;2.13;;;;;;;3.38;100.00;102332.75;5025593;28;20087;-69
2021/11/22 02:20:23;;;;;;;7.07;2.75;;;;;;;3.43;100.00;102330.22;5022106;28;20087;-69
2021/11/22 02:22:54;;;;;;;7.63;2.53;;;;;;;3.36;100.00;102329.22;5027607;28;20095;-69
2021/11/22 02:25:28;;;;;;;4.65;2.30;;;;;;;3.39;100.00;102338.91;5020053;28;20070;-69
2021/11/22 02:27:57;;;;;;;10.30;3.20;;;;;;;3.36;100.00;102334.50;5026117;28;20485;-69
2021/11/22 02:30:30;;;;;;;10.85;3.10;;;;;;;3.31;100.00;102339.66;5020003;28;20291;-69
2021/11/22 02:32:59;;;;;;;12.43;3.65;;;;;;;3.27;100.00;102352.75;5021789;28;20485;-69
2021/11/22 02:35:30;;;;;;;8.18;3.15;;;;;;;3.29;100.00;102349.28;5024212;28;20652;-69
2021/11/22 02:38:19;;;;;;;11.60;3.83;;;;;;;3.29;100.00;102357.22;5024470;28;20067;-68
2021/11/22 02:40:48;;;;;;;10.73;4.07;;;;;;;3.32;100.00;102353.72;5023193;28;20489;-68
2021/11/22 02:43:18;;;;;;;13.30;3.25;;;;;;;3.30;100.00;102361.63;5021965;28;20135;-69
2021/11/22 02:45:46;;;;;;;9.32;3.55;;;;;;;3.27;100.00;102360.66;5024903;28;20426;-68
2021/11/22 02:48:15;;;;;;;7.15;3.13;;;;;;;3.24;100.00;102376.44;5021726;28;20049;-68
2021/11/22 02:50:45;;;;;;;8.25;2.67;;;;;;;3.25;100.00;102375.56;5017977;28;20083;-68
2021/11/22 02:53:17;;;;;;;9.93;2.95;;;;;;;3.21;100.00;102377.25;5022570;28;20294;-77
2021/11/22 02:55:45;;;;;;;6.53;2.17;;;;;;;3.18;100.00;102380.72;5026530;28;20076;-77
2021/11/22 02:58:13;;;;;;;8.48;2.80;;;;;;;3.14;100.00;102383.25;5021952;28;20098;-77
2021/11/22 03:00:41;;;;;;;6.40;2.13;;;;;;;3.14;100.00;102384.13;5028097;28;21048;-77
2021/11/22 03:03:09;;;;;;;5.60;2.15;;;;;;;3.20;100.00;102386.00;5017388;28;20084;-76
2021/11/22 03:05:37;;;;;;;6.13;2.00;;;;;;;3.21;100.00;102389.56;5029257;28;20435;-68
2021/11/22 03:08:08;;;;;;;6.28;1.70;;;;;;;3.16;100.00;102392.97;5029147;28;20554;-69
2021/11/22 03:10:37;;;;;;;7.97;1.92;;;;;;;3.16;100.00;102394.72;5024700;28;20049;-68
2021/11/22 03:13:05;;;;;;;5.53;2.20;;;;;;;3.14;100.00;102404.34;5025822;28;21792;-68
2021/11/22 03:15:35;;;;;;;7.45;2.08;;;;;;;3.16;100.00;102411.44;5024956;28;20045;-68
2021/11/22 03:18:04;;;;;;;6.32;2.17;;;;;;;3.09;100.00;102409.50;5032525;28;20523;-68
2021/11/22 03:20:32;;;;;;;7.18;2.40;;;;;;;3.11;100.00;102417.47;5020919;28;20099;-68
2021/11/22 03:23:02;;;;;;;12.07;2.45;;;;;;;3.08;100.00;102407.75;5027409;28;20128;-68
2021/11/22 03:25:31;;;;;;;9.73;2.05;;;;;;;3.03;100.00;102417.28;5027604;28;20055;-68
2021/11/22 03:27:59;;;;;;;4.82;2.03;;;;;;;3.07;100.00;102421.78;5025842;28;21069;-68
2021/11/22 03:30:28;;;;;;;7.35;2.10;;;;;;;2.98;100.00;102422.44;5028681;28;20053;-68
2021/11/22 03:32:57;;;;;;;8.73;2.15;;;;;;;2.94;100.00;102419.69;5023773;28;20397;-69
2021/11/22 03:35:26;;;;;;;3.35;1.90;;;;;;;2.90;100.00;102434.53;5026325;28;20080;-68
2021/11/22 03:37:54;;;;;;;5.10;2.10;;;;;;;2.90;100.00;102431.03;5024508;28;20065;-68
2021/11/22 03:40:22;;;;;;;5.70;2.20;;;;;;;2.84;100.00;102434.38;5031546;28;20054;-68
2021/11/22 03:43:00;;;;;;;10.07;2.60;;;;;;;2.87;100.00;102437.09;5022760;28;20055;-69
2021/11/22 03:45:28;;;;;;;12.80;2.40;;;;;;;2.85;100.00;102435.28;5027958;28;20543;-68
2021/11/22 03:47:56;;;;;;;6.30;2.38;;;;;;;2.81;100.00;102434.31;5022910;28;20053;-69
2021/11/22 03:50:25;;;;;;;6.22;2.00;;;;;;;2.76;100.00;102444.75;5029198;28;20175;-69
2021/11/22 03:52:53;;;;;;;8.05;2.17;;;;;;;2.69;100.00;102448.06;5019405;28;20041;-68
2021/11/22 03:55:21;;;;;;;6.43;1.85;;;;;;;2.75;100.00;102455.25;5026163;28;20502;-69
2021/11/22 03:57:49;;;;;;;7.43;2.63;;;;;;;2.73;100.00;102451.69;5027391;28;20107;-68
2021/11/22 04:00:19;;;;;;;7.63;2.17;;;;;;;2.72;100.00;102453.41;5027566;28;20479;-69
2021/11/22 04:02:48;;;;;;;7.65;2.67;;;;;;;2.68;100.00;102463.84;5051734;28;20056;-69
2021/11/22 04:05:17;;;;;;;6.75;2.60;;;;;;;2.67;100.00;102462.94;5029826;28;20057;-69
2021/11/22 04:07:47;;;;;;;5.32;2.17;;;;;;;2.61;100.00;102462.78;5023698;28;20069;-69
2021/11/22 04:10:15;;;;;;;8.93;3.25;;;;;;;2.67;100.00;102470.84;5030097;28;20136;-69
2021/11/22 04:12:43;;;;;;;10.90;4.07;;;;;;;2.73;100.00;102472.78;5023889;28;20129;-69
2021/11/22 04:15:11;;;;;;;13.32;4.57;;;;;;;2.76;100.00;102481.66;5023783;28;20057;-69
2021/11/22 04:17:43;;;;;;;9.95;4.25;;;;;;;2.68;100.00;102477.91;5024510;28;20063;-69
2021/11/22 04:20:12;;;;;;;11.88;4.45;;;;;;;2.73;100.00;102488.59;5029539;28;20541;-69
2021/11/22 04:22:42;;;;;;;13.15;4.38;;;;;;;2.73;100.00;102493.88;5027059;28;20095;-69
2021/11/22 04:25:14;;;;;;;8.60;3.35;;;;;;;2.68;100.00;102491.09;5026224;28;20049;-69
2021/11/22 04:27:42;;;;;;;11.73;2.97;;;;;;;2.66;100.00;102498.06;5030529;28;20048;-69
2021/11/22 04:30:11;;;;;;;8.55;2.40;;;;;;;2.72;100.00;102499.97;5023998;28;20120;-69
2021/11/22 04:32:40;;;;;;;8.90;2.95;;;;;;;2.67;100.00;102501.59;5025151;28;20061;-68
2021/11/22 04:35:12;;;;;;;6.70;2.25;;;;;;;2.70;100.00;102501.69;5023809;28;20441;-69
2021/11/22 04:37:41;;;;;;;5.80;1.77;;;;;;;2.69;100.00;102506.06;5025422;28;20044;-68
2021/11/22 04:40:12;;;;;;;5.55;2.17;;;;;;;2.61;100.00;102510.25;5021221;28;20049;-70
2021/11/22 04:42:45;;;;;;;5.10;1.63;;;;;;;2.60;100.00;102509.31;5024347;28;20057;-78
2021/11/22 04:45:13;;;;;;;12.95;2.80;;;;;;;2.54;100.00;102505.66;5023454;28;20045;-75
2021/11/22 04:47:41;;;;;;;7.47;2.05;;;;;;;2.53;100.00;102517.03;5026459;28;20135;-76
2021/11/22 04:50:11;;;;;;;3.80;2.38;;;;;;;2.57;100.00;102516.25;5024600;28;20106;-78
2021/11/22 04:52:38;;;;;;;8.57;3.03;;;;;;;2.56;100.00;102520.63;5022859;28;20244;-77
2021/11/22 04:55:07;;;;;;;9.30;2.97;;;;;;;2.58;100.00;102520.69;5021171;28;20167;-77
2021/11/22 04:57:35;;;;;;;7.80;3.00;;;;;;;2.60;100.00;102521.63;5026729;28;20431;-77
2021/11/22 05:00:05;;;;;;;8.35;3.35;;;;;;;2.57;100.00;102521.53;5025107;28;20136;-77
2021/11/22 05:02:34;;;;;;;7.50;2.58;;;;;;;2.54;100.00;102521.47;5027576;28;21908;-77
2021/11/22 05:05:02;;;;;;;8.68;2.35;;;;;;;2.55;100.00;102528.50;5022541;28;20045;-77
2021/11/22 05:07:31;;;;;;;7.38;1.90;;;;;;;2.52;100.00;102539.88;5025791;28;20424;-77
2021/11/22 05:09:59;;;;;;;6.00;2.05;;;;;;;2.53;100.00;102539.00;5021614;28;20635;-77
2021/11/22 05:12:27;;;;;;;8.05;2.20;;;;;;;2.52;100.00;102539.88;5022978;28;20136;-77
2021/11/22 05:14:55;;;;;;;10.43;2.55;;;;;;;2.47;100.00;102544.13;5025766;28;20556;-78
2021/11/22 05:17:23;;;;;;;5.35;2.28;;;;;;;2.41;100.00;102554.47;5021444;28;20055;-77
2021/11/22 05:19:51;;;;;;;6.30;2.67;;;;;;;2.38;100.00;102554.38;5028330;28;20132;-78
2021/11/22 05:22:21;;;;;;;10.68;3.38;;;;;;;2.29;100.00;102555.00;5018855;28;20081;-77
2021/11/22 05:24:52;;;;;;;6.80;3.20;;;;;;;2.35;100.00;102555.19;5029326;28;20050;-77
2021/11/22 05:27:22;;;;;;;8.93;3.33;;;;;;;2.33;100.00;102561.25;5023107;28;20063;-77
2021/11/22 05:29:51;;;;;;;10.68;3.67;;;;;;;2.33;100.00;102567.41;5019714;28;20701;-77
2021/11/22 05:32:20;;;;;;;9.35;3.00;;;;;;;2.35;100.00;102563.09;5024536;28;20272;-77
2021/11/22 05:34:52;;;;;;;5.57;2.50;;;;;;;2.33;100.00;102577.94;5023209;28;20140;-76
2021/11/22 05:37:20;;;;;;;6.03;2.72;;;;;;;2.32;100.00;102572.66;5024476;28;20045;-76
2021/11/22 05:39:48;;;;;;;4.63;2.13;;;;;;;2.38;100.00;102575.44;5021986;28;20136;-76
2021/11/22 05:42:18;;;;;;;6.47;2.60;;;;;;;2.33;100.00;102577.94;5020250;28;20073;-77
2021/11/22 05:44:46;;;;;;;4.20;1.83;;;;;;;2.30;100.00;102577.88;5024928;28;20524;-76
2021/11/22 05:47:16;;;;;;;5.05;2.60;;;;;;;2.26;100.00;102583.00;5021825;28;20457;-76
2021/11/22 05:49:44;;;;;;;6.03;2.15;;;;;;;2.22;100.00;102582.91;5025674;28;20507;-77
2021/11/22 05:52:13;;;;;;;7.75;2.17;;;;;;;2.26;100.00;102585.63;5016209;28;20056;-76
2021/11/22 05:54:50;;;;;;;4.50;2.25;;;;;;;2.22;100.00;102587.28;5026060;28;20137;-76
2021/11/22 05:57:22;;;;;;;4.93;2.00;;;;;;;2.19;100.00;102595.97;5022929;28;20045;-77
2021/11/22 05:59:51;;;;;;;5.70;2.00;;;;;;;2.10;100.00;102590.44;5024016;28;20140;-77
2021/11/22 06:02:20;;;;;;;8.02;2.40;;;;;;;2.09;100.00;102601.81;5024918;28;20126;-77
2021/11/22 06:04:49;;;;;;;6.57;2.28;;;;;;;2.03;100.00;102599.88;5019632;28;20100;-69
2021/11/22 06:07:19;;;;;;;9.07;2.35;;;;;;;2.07;100.00;102608.75;5022791;28;20068;-68
2021/11/22 06:09:49;;;;;;;7.07;2.65;;;;;;;2.02;100.00;102613.00;5020843;28;20089;-68
2021/11/22 06:12:21;;;;;;;6.43;2.38;;;;;;;1.98;100.00;102616.41;5020619;28;20081;-69
2021/11/22 06:14:52;;;;;;;8.15;2.28;;;;;;;1.95;100.00;102617.16;5021360;28;20528;-69
2021/11/22 06:17:21;;;;;;;4.45;2.13;;;;;;;1.95;100.00;102626.81;5023238;28;20053;-69
2021/11/22 06:19:52;;;;;;;4.75;1.95;;;;;;;1.91;100.00;102622.28;5022569;28;20045;-68
2021/11/22 06:22:20;;;;;;;5.15;1.83;;;;;;;1.95;100.00;102625.06;5024772;28;20054;-69
2021/11/22 06:24:50;;;;;;;3.38;1.70;;;;;;;1.92;100.00;102630.22;5020731;28;20111;-69
2021/11/22 06:27:21;;;;;;;7.03;2.08;;;;;;;1.92;100.00;102624.09;5025071;28;20056;-69
2021/11/22 06:29:51;;;;;;;8.13;2.35;;;;;;;1.95;100.00;102638.25;5021667;28;20099;-69
2021/11/22 06:32:25;;;;;;;9.95;2.45;;;;;;;1.93;100.00;102642.56;5027246;28;20056;-69
2021/11/22 06:34:56;;;;;;;6.40;2.08;;;;;;;1.84;100.00;102643.16;5018322;28;20136;-76
2021/11/22 06:37:26;;;;;;;7.63;2.60;;;;;;;1.81;100.00;102644.81;5024828;28;20053;-76
2021/11/22 06:39:58;;;;;;;10.80;3.00;;;;;;;1.69;100.00;102650.56;5023118;28;20060;-69
2021/11/22 06:42:28;;;;;;;7.47;2.72;;;;;;;1.65;100.00;102654.81;5029194;28;20049;-68
2021/11/22 06:44:56;;;;;;;6.57;2.60;;;;;;;1.65;100.00;102652.19;5024591;28;20059;-69
2021/11/22 06:47:25;;;;;;;6.35;2.60;;;;;;;1.61;100.00;102665.19;5027687;28;20136;-68
2021/11/22 06:49:54;;;;;;;11.43;2.97;;;;;;;1.53;100.00;102659.66;5025569;28;20499;-69
2021/11/22 06:52:22;;;;;;;5.93;2.85;;;;;;;1.52;100.00;102667.53;5026454;28;20057;-68
2021/11/22 06:54:55;;;;;;;6.95;2.90;;;;;;;1.46;100.00;102671.72;5043779;28;20163;-68
2021/11/22 06:57:23;;;;;;;7.50;2.67;;;;;;;1.51;100.00;102677.13;5025714;28;20061;-67
2021/11/22 06:59:53;;;;;;;5.63;2.78;;;;;;;1.45;100.00;102685.72;5023056;28;20140;-67
2021/11/22 07:02:24;;;;;;;9.20;2.80;;;;;;;1.43;100.00;102694.38;5027872;28;20096;-67
2021/11/22 07:04:53;;;;;;;9.27;2.72;;;;;;;1.42;100.00;102705.75;5023472;28;20053;-67
2021/11/22 07:07:21;;;;;;;12.45;3.42;;;;;;;1.46;100.00;102703.31;5027506;28;20110;-68
2021/11/22 07:09:49;;;;;;;8.40;3.00;;;;;;;1.39;100.00;102714.41;5026303;28;20053;-68
2021/11/22 07:12:18;;;;;;;8.13;2.72;;;;;;;1.33;100.00;102716.84;5023848;28;20686;-68
2021/11/22 07:14:46;;;;;;;6.22;3.03;;;;;;;1.30;100.00;102722.88;5027755;28;20049;-75
2021/11/22 07:17:15;;;;;;;8.27;2.80;;;;;;;1.27;100.00;102732.41;5022881;28;20065;-68
2021/11/22 07:19:44;;;;;;;8.43;3.15;;;;;;;1.21;100.00;102732.16;5026569;28;20053;-68
2021/11/22 07:22:13;;;;;;;10.60;3.50;;;;;;;1.22;100.00;102737.47;5028272;28;20442;-68
2021/11/22 07:24:44;;;;;;;8.00;3.53;;;;;;;1.21;100.00;102735.72;5027237;28;20037;-75
2021/11/22 07:27:13;;;;;;;9.85;3.70;;;;;;;1.27;100.00;102749.06;5021356;28;20131;-74
2021/11/22 07:29:42;;;;;;;15.82;4.60;;;;;;;1.22;100.00;102745.38;5028617;28;20064;-75
2021/11/22 07:32:11;;;;;;;10.57;4.25;;;;;;;1.21;100.00;102762.00;5024038;28;20289;-74
2021/11/22 07:34:41;;;;;;;11.27;4.15;;;;;;;1.22;100.00;102757.63;5025472;28;20449;-66
2021/11/22 07:37:09;;;;;;;14.45;4.95;;;;;;;1.23;100.00;102768.22;5020977;28;20049;-66
2021/11/22 07:39:41;;;;;;;15.65;6.93;;;;;;;1.21;100.00;102768.97;5027379;28;20057;-67
2021/11/22 07:42:11;;;;;;;20.00;6.25;;;;;;;1.21;100.00;102771.63;5024225;28;20080;-66
2021/11/22 07:44:40;;;;;;;15.43;5.60;;;;;;;1.24;100.00;102777.00;5025475;28;20267;-68
2021/11/22 07:47:10;;;;;;;13.25;5.03;;;;;;;1.24;100.00;102783.19;5021804;28;20133;-68
2021/11/22 07:49:41;;;;;;;11.55;5.53;;;;;;;1.34;100.00;102787.03;5026754;28;20134;-68
2021/11/22 07:52:09;;;;;;;18.40;6.18;;;;;;;1.29;100.00;102791.22;5020162;28;20277;-65
2021/11/22 07:54:37;;;;;;;19.48;5.72;;;;;;;1.37;100.00;102788.88;5024561;28;20059;-66
2021/11/22 07:57:05;;;;;;;14.15;5.30;;;;;;;1.35;100.00;102794.09;5026520;28;20064;-68
2021/11/22 07:59:34;;;;;;;12.20;3.80;;;;;;;1.31;100.00;102800.06;5029235;28;20059;-67
2021/11/22 08:02:03;;;;;;;11.50;4.43;;;;;;;1.29;100.00;102807.91;5023453;28;20057;-68
2021/11/22 08:04:33;;;;;;;11.27;4.10;;;;;;;1.36;100.00;102802.84;5029315;28;20061;-74
2021/11/22 08:07:09;;;;;;;14.60;4.20;;;;;;;1.38;100.00;102806.44;5020190;28;20049;-72
2021/11/22 08:09:42;;;;;;;8.15;3.58;;;;;;;1.34;100.00;102809.81;5027450;28;20079;-73
2021/11/22 08:12:26;;;;;;;;;;;;;;;1.45;100.00;102812.00;5021981;28;20147;-73
2021/11/22 08:14:57;;;;;;;9.32;3.20;;;;;;;1.44;100.00;102818.09;5018802;28;20003;-73
2021/11/22 08:17:25;;;;;;;9.52;3.45;;;;;;;1.49;100.00;102818.28;5026043;28;20116;-74
2021/11/22 08:19:56;;;;;;;10.23;3.72;;;;;;;1.56;100.00;102827.28;5021270;28;20053;-73
2021/11/22 08:22:26;;;;;;;15.13;3.95;;;;;;;1.58;100.00;102820.34;5027013;28;20053;-73
2021/11/22 08:24:54;;;;;;;9.05;3.60;;;;;;;1.67;100.00;102824.22;5023009;28;20049;-73
2021/11/22 08:27:27;;;;;;;13.13;5.22;;;;;;;1.85;100.00;102826.59;5026858;28;20840;-74
2021/11/22 08:29:55;;;;;;;12.85;4.68;;;;;;;1.87;100.00;102829.28;5024723;28;20583;-74
2021/11/22 08:32:24;;;;;;;12.70;5.35;;;;;;;1.89;100.00;102835.53;5027281;28;20059;-73
2021/11/22 08:34:52;;;;;;;16.60;5.15;;;;;;;1.98;100.00;102841.09;5025576;28;20056;-72
2021/11/22 08:37:20;;;;;;;17.27;6.40;;;;;;;2.18;100.00;102833.91;5029701;28;20135;-73
2021/11/22 08:39:52;;;;;;;18.65;6.07;;;;;;;2.19;100.00;102833.03;5026939;28;20072;-73
2021/11/22 08:42:22;;;;;;;12.63;5.63;;;;;;;2.24;100.00;102827.94;5024628;28;20053;-73
2021/11/22 08:44:50;;;;;;;12.82;5.70;;;;;;;2.28;100.00;102828.94;5026639;28;20044;-73
2021/11/22 08:47:18;;;;;;;16.08;5.90;;;;;;;2.36;100.00;102843.25;5022506;28;20393;-67
2021/11/22 08:49:51;;;;;;;17.02;6.45;;;;;;;2.43;100.00;102839.97;5029454;28;20106;-67
2021/11/22 08:52:21;;;;;;;15.23;5.13;;;;;;;2.44;100.00;102839.16;5020819;28;20123;-67
2021/11/22 08:54:52;;;;;;;19.30;6.28;;;;;;;2.58;100.00;102845.75;5024985;28;20103;-68
2021/11/22 08:57:21;;;;;;;11.63;4.75;;;;;;;2.56;100.00;102851.84;5022502;28;20433;-67
2021/11/22 08:59:49;;;;;;;13.15;4.88;;;;;;;2.64;100.00;102850.38;5027828;28;20053;-67
2021/11/22 09:02:21;;;;;;;8.77;4.57;;;;;;;2.85;100.00;102854.53;5018800;28;20045;-68
2021/11/22 09:04:50;;;;;;;9.95;4.13;;;;;;;2.88;100.00;102855.53;5026123;28;20053;-67
2021/11/22 09:07:18;;;;;;;13.13;4.47;;;;;;;2.97;100.00;102861.06;5021327;28;20056;-74
2021/11/22 09:09:46;;;;;;;11.63;4.40;;;;;;;3.02;100.00;102866.50;5026239;28;20056;-74
2021/11/22 09:12:16;;;;;;;11.93;4.07;;;;;;;3.20;100.00;102870.56;5019194;28;20513;-74
2021/11/22 09:14:44;;;;;;;9.88;3.78;;;;;;;3.23;100.00;102875.94;5027485;28;20079;-74
2021/11/22 09:17:12;;;;;;;9.18;3.70;;;;;;;3.44;100.00;102875.69;5026613;28;22544;-74
2021/11/22 09:19:40;;;;;;;9.65;4.15;;;;;;;3.47;100.00;102875.78;5028134;28;20049;-74
2021/11/22 09:22:12;;;;;;;8.55;3.78;;;;;;;3.57;100.00;102890.16;5024347;28;20725;-75
2021/11/22 09:24:41;;;;;;;6.85;3.80;;;;;;;3.61;100.00;102887.66;5022593;28;20049;-74
2021/11/22 09:27:09;;;;;;;8.60;4.05;;;;;;;3.71;100.00;102892.34;5026609;28;20502;-74
2021/11/22 09:29:39;;;;;;;7.70;3.22;;;;;;;3.86;100.00;102891.88;5018639;28;20072;-74
2021/11/22 09:32:08;;;;;;;6.38;3.35;;;;;;;3.86;100.00;102891.00;5025890;28;20091;-75
2021/11/22 09:34:37;;;;;;;7.07;3.42;;;;;;;4.00;100.00;102896.66;5017562;28;20053;-73
2021/11/22 09:37:05;;;;;;;9.88;3.53;;;;;;;4.16;100.00;102903.28;5027301;28;20055;-68
2021/11/22 09:39:34;;;;;;;9.93;3.42;;;;;;;4.32;100.00;102901.94;5021148;28;20100;-76
2021/11/22 09:42:05;;;;;;;6.10;2.63;;;;;;;4.41;100.00;102903.09;5020513;28;20056;-73
2021/11/22 09:44:33;;;;;;;4.57;3.03;;;;;;;4.60;100.00;102914.16;5019549;28;20144;-75
2021/11/22 09:47:04;;;;;;;9.52;4.28;;;;;;;4.65;100.00;102913.41;5025438;28;20632;-66
2021/11/22 09:49:32;;;;;;;8.05;2.55;;;;;;;4.77;100.00;102918.09;5021964;28;20053;-73
2021/11/22 09:52:01;;;;;;;7.38;2.63;;;;;;;4.95;100.00;102924.69;5021313;28;20053;-75
2021/11/22 09:54:29;;;;;;;7.88;2.83;;;;;;;5.04;100.00;102920.53;5019745;28;20486;-75
2021/11/22 09:56:57;;;;;;;7.28;2.45;;;;;;;5.21;100.00;102922.66;5022190;28;20092;-69
2021/11/22 09:59:25;;;;;;;6.72;2.53;;;;;;;5.32;100.00;102923.81;5020852;28;20056;-69
2021/11/22 10:01:55;;;;;;;5.78;2.42;;;;;;;5.49;100.00;102939.22;5025070;28;20128;-70
2021/11/22 10:04:31;;;;;;;7.07;2.60;;;;;;;5.63;99.10;102928.91;5023129;28;20053;-69
2021/11/22 10:07:01;;;;;;;9.25;2.70;;;;;;;5.77;100.00;102936.31;5025597;28;20052;-70
2021/11/22 10:09:47;;;;;;;9.27;2.75;;;;;;;5.92;98.18;102925.09;5028769;28;20068;-76
2021/11/22 10:12:20;;;;;;;6.75;2.47;;;;;;;6.09;96.70;102928.13;5017814;28;20056;-76
2021/11/22 10:14:51;;;;;;;6.93;2.60;;;;;;;6.25;96.91;102926.69;5029342;28;20076;-76
2021/11/22 10:17:21;;;;;;;5.22;2.20;;;;;;;6.33;93.20;102922.44;5025690;28;20049;-76
2021/11/22 10:20:12;;;;;;;6.70;2.38;;;;;;;6.48;93.82;102926.22;5029052;28;20053;-76
2021/11/22 10:22:41;;;;;;;7.47;2.30;;;;;;;6.52;93.04;102922.75;5025657;28;20122;-69
2021/11/22 10:25:23;;;;;;;5.13;2.35;;;;;;;6.68;93.74;102929.25;5028545;28;21156;-76
2021/11/22 10:27:52;;;;;;;2.85;1.80;;;;;;;6.69;92.58;102929.28;5027033;28;20053;-76
2021/11/22 10:30:22;;;;;;;5.03;2.05;;;;;;;6.81;92.29;102927.66;5028231;28;20148;-69
2021/11/22 10:32:53;;;;;;;4.00;2.28;;;;;;;6.86;90.55;102929.56;5025384;28;20111;-69
2021/11/22 10:35:25;;;;;;;6.65;2.08;;;;;;;6.97;89.62;102920.88;5027766;28;20050;-69
2021/11/22 10:37:58;;;;;;;6.97;2.10;;;;;;;6.89;87.14;102918.09;5025212;28;20540;-70
2021/11/22 10:40:28;;;;;;;4.65;2.40;;;;;;;7.01;89.25;102920.94;5031121;28;20115;-69
2021/11/22 10:42:57;;;;;;;6.43;2.50;;;;;;;7.07;88.27;102921.03;5026466;28;20161;-69
2021/11/22 10:45:29;;;;;;;7.10;2.40;;;;;;;7.15;90.02;102918.50;5030209;28;20040;-70
2021/11/22 10:48:10;;;;;;;14.27;2.63;;;;;;;7.26;87.16;102927.50;5022994;28;20868;-68
2021/11/22 10:50:48;;;;;;;4.68;2.45;;;;;;;7.29;85.33;102924.03;5028201;28;20330;-69
2021/11/22 10:53:24;;;;;;;5.50;2.08;;;;;;;7.30;84.49;102920.47;5046421;28;20086;-69
2021/11/22 10:55:52;;;;;;;12.48;2.13;;;;;;;7.29;83.43;102924.03;5028023;28;20045;-68
2021/11/22 10:58:41;;;;;;;4.40;2.05;;;;;;;7.37;83.18;102925.03;5028080;28;20387;-68
2021/11/22 11:01:34;;;;;;;6.15;1.70;;;;;;;7.45;82.34;102928.66;5022123;28;20202;-68
2021/11/22 11:04:14;;;;;;;3.42;1.58;;;;;;;7.47;81.14;102926.94;5018578;28;20447;-69
2021/11/22 11:06:56;;;;;;;3.85;1.40;;;;;;;7.59;82.58;102925.31;5026560;28;20117;-76
2021/11/22 11:09:28;;;;;;;4.43;1.50;;;;;;;7.70;80.88;102934.34;5020850;28;20504;-77
2021/11/22 11:12:06;;;;;;;7.05;2.67;;;;;;;7.80;80.49;102933.59;5025934;28;20048;-76
2021/11/22 11:14:36;;;;;;;7.63;1.80;;;;;;;7.83;79.97;102933.63;5021000;28;20184;-76
2021/11/22 11:17:19;;;;;;;5.32;1.42;;;;;;;7.93;78.91;102934.63;5030023;28;20057;-69
2021/11/22 11:19:50;;;;;;;4.18;1.50;;;;;;;7.96;78.62;102926.69;5022087;28;20049;-68
2021/11/22 11:22:24;;;;;;;6.97;1.80;;;;;;;8.00;79.74;102935.59;5028796;28;20041;-68
2021/11/22 11:24:52;;;;;;;6.93;2.05;;;;;;;8.05;79.02;102931.22;5028569;28;20064;-68
2021/11/22 11:27:33;;;;;;;4.07;1.70;;;;;;;8.10;77.14;102936.59;5024756;28;20049;-68
2021/11/22 11:30:02;;;;;;;4.10;1.50;;;;;;;8.28;78.30;102933.25;5027763;28;20111;-68
2021/11/22 11:32:31;;;;;;;4.25;1.50;;;;;;;8.29;78.31;102933.28;5025004;28;20468;-68
2021/11/22 11:35:00;;;;;;;4.72;1.70;;;;;;;8.44;78.85;102929.03;5027892;28;20488;-68
2021/11/22 11:38:04;;;;;;;4.72;1.73;;;;;;;8.52;76.29;102936.19;5025426;28;20071;-67